Time;durP1;ratioP1;P1;durP2;ratioP2;P2;SDS_P1;SDS_P2;PMS_P1;PMS_P2;Temp;Humidity;BMP_temperature;BMP_pressure;BME280_temperature;BME280_humidity;BME280_pressure;Samples;Min_cycle;Max_cycle;Signal;HPM_P1;HPM_P2
2023/10/03 00:04:46;;;;;;;16.83;11.30;;;18.40;35.10;;;;;;10477332;28;20223;-70
2023/10/03 00:09:49;;;;;;;16.90;11.70;;;18.30;35.00;;;;;;10479553;28;20240;-71
2023/10/03 00:14:54;;;;;;;17.50;11.57;;;18.20;34.90;;;;;;10476246;28;20324;-71
2023/10/03 00:19:57;;;;;;;19.63;11.37;;;18.10;35.10;;;;;;10471627;28;20221;-70
2023/10/03 00:25:01;;;;;;;16.30;10.67;;;18.10;34.80;;;;;;10478594;28;20228;-70
2023/10/03 00:30:10;;;;;;;19.33;11.53;;;18.10;34.80;;;;;;10484041;28;20234;-70
2023/10/03 00:35:15;;;;;;;19.40;12.47;;;18.10;35.30;;;;;;10484674;28;20230;-71
2023/10/03 00:40:19;;;;;;;17.23;11.10;;;18.00;34.70;;;;;;10483175;28;20228;-70
2023/10/03 00:45:30;;;;;;;21.90;13.47;;;18.00;34.70;;;;;;10483872;28;20228;-70
2023/10/03 00:50:34;;;;;;;19.03;12.77;;;18.00;35.60;;;;;;10483587;28;20275;-70
2023/10/03 00:55:40;;;;;;;14.87;10.10;;;17.80;34.90;;;;;;10483606;28;20228;-70
2023/10/03 01:00:46;;;;;;;20.63;12.77;;;17.70;35.40;;;;;;10472885;28;20282;-70
2023/10/03 01:05:49;;;;;;;18.90;11.40;;;17.60;36.10;;;;;;10475236;28;20247;-70
2023/10/03 01:10:54;;;;;;;18.30;11.77;;;17.50;35.70;;;;;;10472608;28;20239;-70
2023/10/03 01:16:00;;;;;;;17.73;11.90;;;17.50;35.80;;;;;;10483960;28;20232;-70
2023/10/03 01:21:05;;;;;;;21.10;12.27;;;17.40;36.50;;;;;;10483070;28;20232;-70
2023/10/03 01:26:13;;;;;;;16.50;11.23;;;17.40;36.10;;;;;;10471997;28;20585;-70
2023/10/03 01:31:17;;;;;;;18.43;11.80;;;17.40;36.50;;;;;;10485600;28;20573;-70
2023/10/03 01:36:20;;;;;;;17.30;11.47;;;17.40;36.20;;;;;;10490874;28;20236;-70
2023/10/03 01:41:24;;;;;;;15.70;10.87;;;17.40;36.10;;;;;;10490696;28;20307;-70
2023/10/03 01:46:28;;;;;;;18.83;11.57;;;17.40;36.60;;;;;;10490383;28;20228;-70
2023/10/03 01:51:31;;;;;;;22.20;13.33;;;17.40;36.30;;;;;;10490201;28;20830;-70
2023/10/03 01:56:35;;;;;;;21.90;13.83;;;17.40;36.70;;;;;;10482332;28;20722;-70
2023/10/03 02:01:39;;;;;;;19.43;12.50;;;17.30;37.30;;;;;;10484813;28;20285;-70
2023/10/03 02:06:42;;;;;;;21.53;13.13;;;17.20;36.70;;;;;;10487473;28;20244;-70
2023/10/03 02:11:46;;;;;;;20.70;12.90;;;17.10;36.90;;;;;;10488533;28;20315;-70
2023/10/03 02:16:51;;;;;;;17.50;12.00;;;17.10;37.40;;;;;;10484907;28;20885;-70
2023/10/03 02:21:59;;;;;;;21.53;13.80;;;17.10;37.00;;;;;;10469851;28;20671;-70
2023/10/03 02:27:06;;;;;;;22.87;13.40;;;17.10;37.10;;;;;;10475564;28;20228;-70
2023/10/03 02:32:10;;;;;;;20.57;12.53;;;17.10;37.50;;;;;;10465425;28;20618;-70
2023/10/03 02:37:14;;;;;;;22.07;14.07;;;17.10;37.00;;;;;;10481850;28;20266;-70
2023/10/03 02:42:18;;;;;;;21.80;13.23;;;17.10;37.80;;;;;;10474935;28;20774;-70
2023/10/03 02:47:22;;;;;;;20.37;12.63;;;17.10;37.30;;;;;;10485126;28;20227;-70
2023/10/03 02:52:25;;;;;;;20.17;12.67;;;17.10;37.00;;;;;;10473898;28;20710;-70
2023/10/03 02:57:30;;;;;;;19.03;12.20;;;17.10;37.00;;;;;;10487856;28;20299;-70
2023/10/03 03:02:33;;;;;;;22.93;13.47;;;17.10;37.30;;;;;;10487596;28;20224;-70
2023/10/03 03:07:36;;;;;;;22.30;14.03;;;17.10;37.10;;;;;;10477414;28;20227;-70
2023/10/03 03:12:42;;;;;;;20.20;13.47;;;17.00;37.30;;;;;;10487095;28;20242;-70
2023/10/03 03:17:47;;;;;;;20.90;12.83;;;17.00;37.70;;;;;;10486651;28;20232;-70
2023/10/03 03:22:51;;;;;;;21.30;13.30;;;17.00;37.40;;;;;;10486962;28;20927;-70
2023/10/03 03:27:56;;;;;;;19.93;12.27;;;17.00;38.10;;;;;;10482408;28;20228;-70
2023/10/03 03:32:59;;;;;;;22.50;13.37;;;17.00;37.80;;;;;;10486373;28;20315;-70
2023/10/03 03:38:05;;;;;;;17.83;11.50;;;17.00;37.40;;;;;;10485941;28;20233;-70
2023/10/03 03:43:12;;;;;;;18.33;11.40;;;16.90;37.20;;;;;;10480130;28;20605;-70
2023/10/03 03:48:18;;;;;;;17.17;11.13;;;16.90;37.50;;;;;;10481057;28;20233;-70
2023/10/03 03:53:22;;;;;;;18.90;11.97;;;16.80;37.20;;;;;;10485380;28;20236;-70
2023/10/03 03:58:27;;;;;;;22.23;13.27;;;16.80;37.20;;;;;;10460440;28;20319;-70
2023/10/03 04:03:34;;;;;;;22.77;13.13;;;16.80;37.50;;;;;;10479251;28;20232;-69
2023/10/03 04:08:38;;;;;;;19.63;12.83;;;16.70;36.90;;;;;;10485109;28;20251;-70
2023/10/03 04:13:55;;;;;;;19.30;12.30;;;16.60;37.10;;;;;;10481466;28;20293;-70
2023/10/03 04:18:58;;;;;;;16.73;10.87;;;16.50;37.30;;;;;;10484573;28;20320;-70
2023/10/03 04:24:02;;;;;;;16.57;10.97;;;16.40;37.10;;;;;;10478479;28;20294;-70
2023/10/03 04:29:10;;;;;;;16.87;10.90;;;16.30;37.10;;;;;;10479328;28;20229;-70
2023/10/03 04:34:18;;;;;;;17.73;11.27;;;16.30;37.50;;;;;;10480436;28;20777;-70
2023/10/03 04:39:22;;;;;;;17.63;11.53;;;16.30;37.40;;;;;;10481973;28;20259;-70
2023/10/03 04:44:26;;;;;;;19.87;12.00;;;16.30;37.50;;;;;;10484255;28;20599;-70
2023/10/03 04:49:30;;;;;;;17.13;11.57;;;16.30;37.80;;;;;;10480060;28;20722;-70
2023/10/03 04:54:33;;;;;;;18.07;11.50;;;16.30;37.50;;;;;;10474715;28;20597;-70
2023/10/03 04:59:39;;;;;;;18.60;12.07;;;16.30;37.50;;;;;;10484158;28;20315;-70
2023/10/03 05:04:42;;;;;;;20.53;12.03;;;16.20;37.70;;;;;;10491096;28;20228;-70
2023/10/03 05:09:46;;;;;;;17.70;12.23;;;16.20;37.50;;;;;;10479791;28;20303;-70
2023/10/03 05:14:51;;;;;;;18.13;11.10;;;16.20;37.30;;;;;;10491087;28;20224;-70
2023/10/03 05:19:58;;;;;;;17.03;11.00;;;16.10;37.70;;;;;;10490934;28;20260;-70
2023/10/03 05:25:03;;;;;;;20.37;12.20;;;16.10;37.60;;;;;;10490683;28;20228;-70
2023/10/03 05:30:09;;;;;;;18.87;11.47;;;16.00;37.70;;;;;;10482137;28;20228;-70
2023/10/03 05:35:12;;;;;;;21.23;12.70;;;16.00;38.20;;;;;;10486416;28;20289;-70
2023/10/03 05:40:19;;;;;;;19.03;11.50;;;15.90;37.90;;;;;;10483392;28;20282;-70
2023/10/03 05:45:23;;;;;;;17.70;11.73;;;15.90;38.10;;;;;;10483339;28;20310;-70
2023/10/03 05:50:27;;;;;;;20.50;12.57;;;15.90;38.60;;;;;;10488208;28;20232;-70
2023/10/03 05:55:31;;;;;;;19.60;12.27;;;15.90;38.30;;;;;;10485265;28;20224;-70
2023/10/03 06:00:36;;;;;;;18.10;12.07;;;15.90;38.40;;;;;;10482356;28;20316;-70
2023/10/03 06:05:39;;;;;;;19.13;12.40;;;15.90;39.10;;;;;;10472614;28;20834;-70
2023/10/03 06:10:42;;;;;;;21.13;12.57;;;15.90;38.90;;;;;;10470884;28;20220;-70
2023/10/03 06:15:47;;;;;;;17.90;11.80;;;16.00;39.10;;;;;;10486927;28;20232;-70
2023/10/03 06:20:50;;;;;;;23.00;13.53;;;15.90;39.60;;;;;;10486975;28;20267;-70
2023/10/03 06:25:53;;;;;;;20.40;13.30;;;15.90;39.50;;;;;;10487184;28;20782;-70
2023/10/03 06:30:58;;;;;;;21.83;13.47;;;16.00;39.80;;;;;;10486579;28;20239;-70
2023/10/03 06:36:06;;;;;;;20.90;12.60;;;15.90;40.60;;;;;;10486602;28;20272;-70
2023/10/03 06:41:09;;;;;;;21.23;12.63;;;16.00;40.10;;;;;;10499520;28;20227;-70
2023/10/03 06:46:15;;;;;;;17.07;11.60;;;16.10;40.30;;;;;;10498015;28;20266;-70
2023/10/03 06:51:19;;;;;;;20.93;12.73;;;16.20;40.90;;;;;;10485877;28;20712;-70
2023/10/03 06:56:22;;;;;;;22.17;13.90;;;16.30;40.70;;;;;;10486019;28;20234;-70
2023/10/03 07:01:27;;;;;;;19.23;12.03;;;16.30;40.90;;;;;;10485800;28;20236;-71
2023/10/03 07:06:30;;;;;;;22.27;13.20;;;16.40;41.70;;;;;;10482054;28;20312;-71
2023/10/03 07:11:34;;;;;;;21.23;13.33;;;16.60;41.50;;;;;;10476755;28;20224;-71
2023/10/03 07:16:41;;;;;;;20.37;13.27;;;16.70;41.60;;;;;;10478946;28;20739;-71
2023/10/03 07:21:44;;;;;;;20.57;12.33;;;16.90;42.80;;;;;;10479040;28;20256;-71
2023/10/03 07:26:48;;;;;;;19.40;11.73;;;17.00;42.40;;;;;;10471978;28;20240;-71
2023/10/03 07:31:53;;;;;;;19.90;12.10;;;17.30;43.00;;;;;;10476352;28;20228;-71
2023/10/03 07:36:57;;;;;;;19.57;12.40;;;17.50;43.70;;;;;;10478508;28;20234;-71
2023/10/03 07:42:01;;;;;;;16.87;11.87;;;17.80;43.20;;;;;;10495674;28;20230;-70
2023/10/03 07:47:06;;;;;;;17.90;10.73;;;18.10;43.20;;;;;;10494132;28;20248;-71
2023/10/03 07:52:09;;;;;;;18.37;11.57;;;18.50;43.50;;;;;;10485270;28;20317;-71
2023/10/03 07:57:13;;;;;;;17.30;11.97;;;18.80;42.70;;;;;;10487080;28;20228;-71
2023/10/03 08:02:17;;;;;;;18.30;11.40;;;19.10;42.70;;;;;;10485018;28;20216;-71
2023/10/03 08:07:22;;;;;;;17.80;11.30;;;19.40;42.90;;;;;;10478641;28;20303;-71
2023/10/03 08:12:25;;;;;;;18.00;11.47;;;19.70;42.60;;;;;;10464581;28;20238;-70
2023/10/03 08:17:31;;;;;;;18.13;11.03;;;20.10;42.70;;;;;;10460603;28;20779;-71
2023/10/03 08:22:34;;;;;;;15.13;10.90;;;20.40;42.60;;;;;;10444650;28;20311;-72
2023/10/03 08:27:37;;;;;;;15.63;10.47;;;20.80;42.50;;;;;;10456155;28;20236;-73
2023/10/03 08:32:42;;;;;;;15.20;9.73;;;21.10;42.30;;;;;;10449244;28;20234;-72
2023/10/03 08:37:45;;;;;;;12.43;8.23;;;21.50;42.40;;;;;;10473756;28;20225;-71
2023/10/03 08:42:52;;;;;;;10.23;8.10;;;21.90;41.80;;;;;;10464066;28;20757;-72
2023/10/03 08:48:05;;;;;;;10.83;7.83;;;22.30;41.30;;;;;;10467471;28;20236;-72
2023/10/03 08:53:26;;;;;;;9.40;7.33;;;22.70;40.40;;;;;;10464262;28;20240;-70
2023/10/03 08:58:30;;;;;;;10.33;7.53;;;23.20;39.40;;;;;;10485316;28;20687;-72
2023/10/03 09:03:46;;;;;;;10.63;7.53;;;23.60;39.70;;;;;;10463934;28;20308;-70
2023/10/03 09:09:07;;;;;;;8.73;6.83;;;23.90;38.50;;;;;;10468191;28;20240;-71
2023/10/03 09:14:19;;;;;;;9.70;7.10;;;24.30;38.40;;;;;;10466898;28;20243;-71
2023/10/03 09:19:41;;;;;;;10.23;7.00;;;24.60;38.20;;;;;;10472474;28;20224;-70
2023/10/03 09:24:45;;;;;;;8.37;6.73;;;24.90;37.50;;;;;;10496805;28;20224;-70
2023/10/03 09:29:49;;;;;;;9.90;7.00;;;25.20;37.20;;;;;;10473797;28;20799;-70
2023/10/03 09:34:58;;;;;;;10.50;6.83;;;25.50;36.50;;;;;;10470960;28;20228;-71
2023/10/03 09:40:16;;;;;;;9.77;6.63;;;25.70;35.90;;;;;;10454086;28;20238;-71
2023/10/03 09:45:24;;;;;;;7.93;6.70;;;26.00;35.80;;;;;;10460875;28;20307;-71
2023/10/03 09:50:30;;;;;;;7.20;6.20;;;26.20;35.00;;;;;;10458362;28;20625;-71
2023/10/03 09:55:41;;;;;;;8.07;6.13;;;26.40;34.10;;;;;;10461612;28;20311;-71
2023/10/03 10:00:50;;;;;;;8.13;6.43;;;26.60;33.50;;;;;;10461804;28;20300;-71
2023/10/03 10:06:12;;;;;;;8.73;6.17;;;26.80;33.40;;;;;;10464176;28;20228;-71
2023/10/03 10:11:16;;;;;;;7.43;6.00;;;27.00;31.60;;;;;;10465038;28;20232;-71
2023/10/03 10:16:22;;;;;;;8.83;5.93;;;27.20;32.90;;;;;;10461598;28;20250;-71
2023/10/03 10:21:30;;;;;;;7.83;5.70;;;27.40;33.10;;;;;;10459316;28;20316;-71
2023/10/03 10:26:34;;;;;;;6.73;5.47;;;27.70;31.70;;;;;;10463613;28;20260;-71
2023/10/03 10:31:43;;;;;;;6.53;5.83;;;27.80;32.40;;;;;;10458603;28;20739;-71
2023/10/03 10:37:01;;;;;;;8.07;5.60;;;28.00;30.90;;;;;;10460692;28;20330;-71
2023/10/03 10:42:11;;;;;;;7.97;5.70;;;28.20;30.30;;;;;;10454751;28;20264;-71
2023/10/03 10:47:15;;;;;;;6.70;5.70;;;28.30;29.40;;;;;;10457387;28;20244;-71
2023/10/03 10:52:20;;;;;;;6.83;5.30;;;28.50;30.50;;;;;;10458206;28;20307;-71
2023/10/03 10:57:28;;;;;;;5.90;5.30;;;28.70;29.70;;;;;;10464451;28;21611;-71
2023/10/03 11:02:33;;;;;;;5.97;5.37;;;28.80;29.30;;;;;;10460060;28;20228;-71
2023/10/03 11:07:42;;;;;;;6.63;5.30;;;29.00;29.90;;;;;;10461238;28;20239;-71
2023/10/03 11:12:59;;;;;;;7.33;5.80;;;29.00;29.10;;;;;;10462062;28;20228;-71
2023/10/03 11:18:04;;;;;;;6.37;5.13;;;29.10;29.00;;;;;;10458656;28;20228;-71
2023/10/03 11:23:18;;;;;;;6.50;5.63;;;29.30;29.30;;;;;;10459945;28;20229;-71
2023/10/03 11:28:21;;;;;;;6.03;5.27;;;29.30;27.70;;;;;;10461902;28;20718;-71
2023/10/03 11:33:25;;;;;;;6.03;5.23;;;29.40;28.70;;;;;;10460458;28;20310;-71
2023/10/03 11:38:30;;;;;;;5.77;5.17;;;29.50;28.60;;;;;;10461061;28;21231;-71
2023/10/03 11:43:43;;;;;;;5.27;4.77;;;29.50;27.90;;;;;;10456257;28;20306;-72
2023/10/03 11:48:46;;;;;;;5.87;4.97;;;29.40;28.40;;;;;;10454605;28;20230;-71
2023/10/03 11:53:51;;;;;;;5.67;5.10;;;29.40;27.90;;;;;;10455296;28;20754;-71
2023/10/03 11:58:55;;;;;;;5.47;4.73;;;29.40;27.90;;;;;;10453300;28;20290;-71
2023/10/03 12:03:58;;;;;;;6.47;4.90;;;29.40;27.90;;;;;;10455489;28;20231;-71
2023/10/03 12:09:08;;;;;;;6.87;5.30;;;29.40;28.00;;;;;;10456938;28;20237;-71
2023/10/03 12:14:12;;;;;;;6.07;4.53;;;29.60;26.90;;;;;;10454932;28;20789;-71
2023/10/03 12:19:15;;;;;;;7.13;5.07;;;29.70;27.40;;;;;;10454613;28;20232;-71
2023/10/03 12:24:20;;;;;;;8.77;5.20;;;29.80;27.20;;;;;;10455410;28;20232;-71
2023/10/03 12:29:31;;;;;;;5.53;4.93;;;29.90;26.20;;;;;;10455295;28;20228;-71
2023/10/03 12:34:34;;;;;;;5.40;4.90;;;29.90;26.20;;;;;;10455657;28;22421;-71
2023/10/03 12:39:39;;;;;;;6.17;4.80;;;29.90;25.80;;;;;;10454969;28;20269;-71
2023/10/03 12:44:42;;;;;;;4.70;4.30;;;30.00;25.30;;;;;;10455657;28;20319;-71
2023/10/03 12:49:45;;;;;;;6.27;4.80;;;30.00;25.60;;;;;;10457085;28;20227;-71
2023/10/03 12:54:50;;;;;;;5.27;4.23;;;29.90;25.40;;;;;;10454256;28;20228;-71
2023/10/03 12:59:53;;;;;;;6.80;4.60;;;30.00;24.70;;;;;;10456938;28;20240;-72
2023/10/03 13:04:57;;;;;;;5.23;4.73;;;29.90;25.00;;;;;;10453531;28;20315;-71
2023/10/03 13:10:06;;;;;;;4.80;4.40;;;29.90;25.00;;;;;;10457581;28;20229;-71
2023/10/03 13:15:11;;;;;;;7.63;4.90;;;29.90;24.80;;;;;;10456664;28;20271;-71
2023/10/03 13:20:18;;;;;;;5.07;4.57;;;29.90;25.10;;;;;;10452094;28;20367;-71
2023/10/03 13:25:23;;;;;;;4.67;4.17;;;29.80;24.70;;;;;;10462765;28;20248;-71
2023/10/03 13:30:27;;;;;;;5.03;4.43;;;29.80;24.40;;;;;;10465599;28;20232;-71
2023/10/03 13:35:33;;;;;;;5.87;4.80;;;29.80;24.10;;;;;;10469084;28;20294;-71
2023/10/03 13:40:37;;;;;;;5.03;4.53;;;29.90;24.50;;;;;;10459193;28;20228;-72
2023/10/03 13:45:42;;;;;;;7.20;4.23;;;29.90;23.90;;;;;;10464026;28;20228;-71
2023/10/03 13:50:45;;;;;;;6.17;4.53;;;29.90;24.10;;;;;;10463549;28;20231;-72
2023/10/03 13:55:53;;;;;;;4.93;4.43;;;29.90;23.60;;;;;;10458017;28;20243;-72
2023/10/03 14:00:56;;;;;;;5.03;4.20;;;30.00;23.40;;;;;;10463405;28;20236;-72
2023/10/03 14:05:59;;;;;;;5.57;4.40;;;30.00;23.40;;;;;;10459095;28;20232;-72
2023/10/03 14:11:05;;;;;;;5.83;4.27;;;29.90;23.40;;;;;;10459759;28;20255;-72
2023/10/03 14:16:08;;;;;;;4.53;4.13;;;29.90;23.00;;;;;;10465133;28;20756;-72
2023/10/03 14:21:11;;;;;;;5.17;4.30;;;29.80;23.40;;;;;;10458662;28;20229;-72
2023/10/03 14:26:16;;;;;;;5.33;4.83;;;29.80;23.50;;;;;;10478911;28;20282;-71
2023/10/03 14:31:19;;;;;;;5.17;4.27;;;29.80;23.30;;;;;;10466528;28;20763;-72
2023/10/03 14:36:22;;;;;;;5.53;4.23;;;29.70;23.50;;;;;;10459286;28;20251;-72
2023/10/03 14:41:27;;;;;;;6.47;4.30;;;29.80;23.70;;;;;;10462942;28;20283;-72
2023/10/03 14:46:30;;;;;;;9.10;4.80;;;29.70;23.60;;;;;;10460329;28;20230;-71
2023/10/03 14:51:33;;;;;;;5.67;5.17;;;29.70;23.80;;;;;;10455754;28;20224;-72
2023/10/03 14:56:38;;;;;;;6.23;4.53;;;29.60;23.80;;;;;;10459184;28;20242;-72
2023/10/03 15:01:41;;;;;;;5.20;4.70;;;29.60;23.80;;;;;;10459077;28;20595;-71
2023/10/03 15:06:45;;;;;;;6.00;4.90;;;29.60;24.00;;;;;;10458540;28;20783;-71
2023/10/03 15:11:50;;;;;;;5.43;4.63;;;29.50;24.10;;;;;;10460030;28;20756;-71
2023/10/03 15:16:54;;;;;;;6.00;5.30;;;29.30;24.00;;;;;;10462764;28;20768;-71
2023/10/03 15:21:57;;;;;;;5.40;4.90;;;29.20;24.40;;;;;;10459547;28;20227;-71
2023/10/03 15:27:03;;;;;;;7.23;4.80;;;29.10;24.50;;;;;;10458435;28;20228;-72
2023/10/03 15:32:07;;;;;;;5.57;5.03;;;29.10;24.70;;;;;;10456420;28;20244;-71
2023/10/03 15:37:16;;;;;;;6.83;5.20;;;29.00;24.80;;;;;;10455509;28;20391;-71
2023/10/03 15:42:21;;;;;;;5.20;4.70;;;28.90;24.70;;;;;;10456486;28;20243;-71
2023/10/03 15:47:24;;;;;;;6.40;4.50;;;28.80;24.60;;;;;;10452205;28;20229;-72
2023/10/03 15:52:27;;;;;;;5.77;5.17;;;28.70;24.80;;;;;;10462301;28;20232;-71
2023/10/03 15:57:32;;;;;;;5.27;4.70;;;28.70;24.90;;;;;;10455280;28;21067;-71
2023/10/03 16:02:36;;;;;;;5.77;3.87;;;28.60;24.70;;;;;;10460292;28;20286;-71
2023/10/03 16:07:39;;;;;;;4.73;4.33;;;28.60;24.70;;;;;;10456280;28;20259;-71
2023/10/03 16:12:44;;;;;;;8.60;4.90;;;28.50;24.90;;;;;;10463908;28;20308;-71
2023/10/03 16:17:47;;;;;;;7.63;4.60;;;28.50;24.80;;;;;;10460634;28;20246;-72
2023/10/03 16:22:50;;;;;;;8.07;4.60;;;28.40;25.00;;;;;;10460895;28;20336;-72
2023/10/03 16:27:55;;;;;;;6.00;4.77;;;28.30;25.10;;;;;;10458084;28;20234;-71
2023/10/03 16:32:59;;;;;;;5.10;4.53;;;28.20;25.00;;;;;;10457378;28;20231;-71
2023/10/03 16:38:02;;;;;;;6.10;4.50;;;28.00;25.20;;;;;;10453726;28;20232;-71
2023/10/03 16:43:08;;;;;;;5.10;4.60;;;27.90;25.40;;;;;;10457730;28;20231;-71
2023/10/03 16:48:11;;;;;;;4.93;4.43;;;27.80;25.50;;;;;;10452432;28;20220;-72
2023/10/03 16:53:16;;;;;;;4.97;4.53;;;27.60;25.60;;;;;;10456490;28;20312;-70
2023/10/03 16:58:20;;;;;;;7.47;4.67;;;27.50;25.70;;;;;;10466797;28;20224;-70
2023/10/03 17:03:23;;;;;;;5.87;5.00;;;27.40;26.10;;;;;;10461756;28;20224;-70
2023/10/03 17:08:27;;;;;;;5.80;4.70;;;27.30;26.00;;;;;;10465631;28;20318;-70
2023/10/03 17:13:31;;;;;;;5.73;4.73;;;27.20;26.10;;;;;;10471550;28;20220;-70
2023/10/03 17:18:36;;;;;;;5.10;4.60;;;27.10;26.20;;;;;;10456207;28;20599;-70
2023/10/03 17:23:40;;;;;;;4.87;4.40;;;27.10;26.30;;;;;;10466032;28;20252;-70
2023/10/03 17:28:45;;;;;;;4.80;4.40;;;27.00;26.30;;;;;;10465402;28;20714;-70
2023/10/03 17:33:49;;;;;;;7.43;4.30;;;26.90;26.30;;;;;;10466234;28;20233;-71
2023/10/03 17:38:52;;;;;;;5.47;4.20;;;26.70;26.30;;;;;;10463557;28;20334;-70
2023/10/03 17:43:57;;;;;;;5.77;4.10;;;26.60;27.00;;;;;;10461679;28;20718;-72
2023/10/03 17:49:00;;;;;;;5.37;4.17;;;26.50;26.60;;;;;;10457735;28;20666;-72
2023/10/03 17:54:05;;;;;;;5.80;4.33;;;26.50;26.60;;;;;;10461017;28;20224;-72
2023/10/03 17:59:19;;;;;;;12.80;3.00;;;26.40;26.60;;;;;;10460556;28;20221;-72
2023/10/03 18:04:23;;;;;;;8.27;2.20;;;26.30;27.10;;;;;;10466307;28;20694;-72
2023/10/03 18:09:26;;;;;;;7.20;1.90;;;26.10;28.60;;;;;;10462974;28;20596;-71
2023/10/03 18:14:31;;;;;;;3.73;1.80;;;25.40;28.90;;;;;;10461647;28;20228;-70
2023/10/03 18:19:35;;;;;;;2.30;1.50;;;24.70;30.00;;;;;;10462956;28;20967;-70
2023/10/03 18:24:38;;;;;;;2.00;1.80;;;23.90;29.70;;;;;;10455919;28;20728;-70
2023/10/03 18:29:43;;;;;;;2.57;1.80;;;23.30;30.20;;;;;;10456375;28;20230;-70
2023/10/03 18:34:46;;;;;;;2.03;1.63;;;22.90;31.20;;;;;;10458660;28;20224;-70
2023/10/03 18:39:49;;;;;;;1.70;1.50;;;22.50;30.80;;;;;;10460177;28;20745;-70
2023/10/03 18:44:54;;;;;;;2.10;1.60;;;22.30;31.10;;;;;;10460303;28;20729;-70
2023/10/03 18:49:57;;;;;;;2.33;1.90;;;22.10;32.00;;;;;;10460773;28;20300;-69
2023/10/03 18:55:01;;;;;;;3.10;1.50;;;21.90;31.70;;;;;;10464124;28;20797;-70
2023/10/03 19:00:11;;;;;;;1.60;1.50;;;21.80;31.70;;;;;;10456299;28;20224;-71
2023/10/03 19:05:15;;;;;;;1.47;1.27;;;21.70;33.30;;;;;;10451732;28;20398;-71
2023/10/03 19:10:18;;;;;;;1.60;1.50;;;21.50;32.10;;;;;;10454756;28;20236;-71
2023/10/03 19:15:23;;;;;;;1.40;1.30;;;21.50;32.40;;;;;;10450995;28;20275;-71
2023/10/03 19:20:27;;;;;;;1.70;1.40;;;21.40;33.20;;;;;;10454584;28;20235;-71
2023/10/03 19:25:32;;;;;;;1.63;1.50;;;21.40;32.90;;;;;;10445785;28;20229;-71
2023/10/03 19:30:37;;;;;;;1.43;1.33;;;21.30;32.90;;;;;;10446565;28;21297;-71
2023/10/03 19:35:40;;;;;;;1.90;1.70;;;21.20;33.70;;;;;;10449561;28;20307;-71
2023/10/03 19:40:44;;;;;;;1.30;1.20;;;21.10;33.40;;;;;;10448444;28;21050;-70
2023/10/03 19:45:48;;;;;;;1.27;1.17;;;20.80;33.80;;;;;;10446134;28;20213;-70
2023/10/03 19:50:52;;;;;;;2.27;1.20;;;20.60;34.90;;;;;;10446468;28;20237;-70
2023/10/03 19:56:02;;;;;;;1.60;1.50;;;20.50;34.50;;;;;;10451600;28;20397;-71
2023/10/03 20:01:08;;;;;;;1.83;1.10;;;20.40;35.70;;;;;;10447620;28;20224;-71
2023/10/03 20:06:11;;;;;;;1.33;1.20;;;20.40;35.20;;;;;;10447455;28;20268;-71
2023/10/03 20:11:14;;;;;;;1.17;1.07;;;20.40;34.30;;;;;;10450587;28;20232;-71
2023/10/03 20:16:19;;;;;;;1.20;1.10;;;20.50;34.40;;;;;;10449051;28;20228;-71
2023/10/03 20:21:22;;;;;;;1.20;1.10;;;20.40;35.10;;;;;;10457223;28;20620;-71
2023/10/03 20:26:25;;;;;;;2.30;1.50;;;20.40;34.40;;;;;;10461163;28;20228;-71
2023/10/03 20:31:30;;;;;;;1.40;1.30;;;20.30;34.40;;;;;;10458880;28;20228;-71
2023/10/03 20:36:34;;;;;;;1.33;1.23;;;20.30;35.10;;;;;;10459353;28;20225;-71
2023/10/03 20:41:37;;;;;;;2.60;1.40;;;20.20;34.60;;;;;;10461420;28;20722;-71
2023/10/03 20:46:41;;;;;;;1.73;1.30;;;20.20;34.70;;;;;;10458946;28;20675;-71
2023/10/03 20:51:45;;;;;;;1.20;1.10;;;20.10;35.40;;;;;;10459790;28;20228;-71
2023/10/03 20:56:48;;;;;;;1.20;1.10;;;20.00;34.80;;;;;;10460624;28;20272;-71
2023/10/03 21:01:52;;;;;;;1.30;1.20;;;20.00;35.00;;;;;;10462418;28;20311;-71
2023/10/03 21:06:56;;;;;;;1.80;1.37;;;19.90;35.70;;;;;;10459252;28;20270;-71
2023/10/03 21:11:59;;;;;;;1.33;1.20;;;19.90;35.20;;;;;;10462678;28;20232;-71
2023/10/03 21:17:04;;;;;;;1.37;1.27;;;19.90;35.30;;;;;;10457998;28;20263;-71
2023/10/03 21:22:07;;;;;;;1.43;1.27;;;19.90;35.50;;;;;;10457160;28;20278;-71
2023/10/03 21:27:10;;;;;;;2.00;1.70;;;19.80;34.90;;;;;;10457697;28;20319;-71
2023/10/03 21:32:15;;;;;;;3.20;1.87;;;19.80;34.90;;;;;;10454186;28;20233;-71
2023/10/03 21:37:19;;;;;;;1.57;1.43;;;19.70;35.50;;;;;;10460902;28;20225;-71
2023/10/03 21:42:22;;;;;;;2.70;1.63;;;19.70;34.80;;;;;;10457917;28;20236;-71
2023/10/03 21:47:31;;;;;;;2.10;1.90;;;19.60;34.80;;;;;;10467924;28;20231;-71
2023/10/03 21:52:36;;;;;;;1.87;1.60;;;19.50;35.00;;;;;;10468141;28;20228;-71
2023/10/03 21:57:39;;;;;;;2.20;1.40;;;19.40;34.80;;;;;;10460984;28;20239;-71
2023/10/03 22:02:43;;;;;;;1.80;1.53;;;19.30;34.80;;;;;;10465306;28;20231;-71
2023/10/03 22:07:47;;;;;;;2.30;1.80;;;19.20;35.60;;;;;;10468702;28;20229;-71
2023/10/03 22:12:51;;;;;;;2.23;1.60;;;19.20;35.10;;;;;;10462241;28;20224;-71
2023/10/03 22:17:56;;;;;;;2.60;2.00;;;19.10;35.00;;;;;;10470233;28;20644;-71
2023/10/03 22:22:59;;;;;;;2.30;1.87;;;18.90;35.50;;;;;;10468482;28;20243;-71
2023/10/03 22:28:03;;;;;;;2.00;1.63;;;18.70;35.40;;;;;;10473140;28;20327;-71
2023/10/03 22:33:08;;;;;;;3.07;1.83;;;18.50;35.20;;;;;;10467075;28;20740;-71
2023/10/03 22:38:13;;;;;;;1.53;1.43;;;18.30;36.00;;;;;;10465020;28;20690;-71
2023/10/03 22:43:16;;;;;;;2.53;2.10;;;18.20;35.90;;;;;;10470902;28;20267;-71
2023/10/03 22:48:22;;;;;;;2.03;1.83;;;18.10;36.20;;;;;;10465684;28;20342;-71
2023/10/03 22:53:25;;;;;;;2.37;1.80;;;18.10;36.70;;;;;;10466712;28;20224;-71
2023/10/03 22:58:29;;;;;;;3.17;1.77;;;18.00;36.10;;;;;;10460175;28;20330;-71
2023/10/03 23:03:34;;;;;;;2.10;1.90;;;18.00;36.10;;;;;;10467106;28;20228;-71
2023/10/03 23:08:37;;;;;;;2.10;1.87;;;18.00;36.70;;;;;;10466862;28;21335;-71
2023/10/03 23:13:40;;;;;;;2.07;1.87;;;17.90;36.30;;;;;;10452999;28;20244;-71
2023/10/03 23:18:45;;;;;;;1.70;1.60;;;17.90;36.30;;;;;;10460675;28;20224;-71
2023/10/03 23:23:48;;;;;;;2.27;1.60;;;17.80;36.70;;;;;;10460256;28;20239;-71
2023/10/03 23:28:51;;;;;;;1.90;1.63;;;17.80;36.50;;;;;;10463776;28;20792;-71
2023/10/03 23:33:56;;;;;;;3.10;1.87;;;17.70;36.40;;;;;;10461940;28;20675;-71
2023/10/03 23:39:00;;;;;;;1.70;1.53;;;17.60;37.00;;;;;;10460033;28;20752;-71
2023/10/03 23:44:06;;;;;;;1.60;1.50;;;17.50;36.70;;;;;;10464986;28;20216;-71
2023/10/03 23:49:11;;;;;;;2.40;1.60;;;17.50;36.90;;;;;;10461124;28;20225;-71
2023/10/03 23:54:16;;;;;;;1.73;1.60;;;17.50;37.50;;;;;;10463230;28;20336;-71
2023/10/03 23:59:21;;;;;;;2.07;1.57;;;17.60;37.00;;;;;;10463492;28;20238;-71
